地図

経路データ

SID SEASON NUMBER BASIN SUBBASIN NAME ISO_TIME NATURE LAT LON WMO_WIND WMO_PRES WMO_AGENCY TRACK_TYPE DIST2LAND LANDFALL IFLAG USA_AGENCY USA_ATCF_ID USA_LAT USA_LON USA_RECORD USA_STATUS USA_WIND USA_PRES USA_SSHS USA_R34_NE USA_R34_SE USA_R34_SW USA_R34_NW USA_R50_NE USA_R50_SE USA_R50_SW USA_R50_NW USA_R64_NE USA_R64_SE USA_R64_SW USA_R64_NW USA_POCI USA_ROCI USA_RMW USA_EYE TOKYO_LAT TOKYO_LON TOKYO_GRADE TOKYO_WIND TOKYO_PRES TOKYO_R50_DIR TOKYO_R50_LONG TOKYO_R50_SHORT TOKYO_R30_DIR TOKYO_R30_LONG TOKYO_R30_SHORT TOKYO_LAND CMA_LAT CMA_LON CMA_CAT CMA_WIND CMA_PRES HKO_LAT HKO_LON HKO_CAT HKO_WIND HKO_PRES NEWDELHI_LAT NEWDELHI_LON NEWDELHI_GRADE NEWDELHI_WIND NEWDELHI_PRES NEWDELHI_CI NEWDELHI_DP NEWDELHI_POCI REUNION_LAT REUNION_LON REUNION_TYPE REUNION_WIND REUNION_PRES REUNION_TNUM REUNION_CI REUNION_RMW REUNION_R34_NE REUNION_R34_SE REUNION_R34_SW REUNION_R34_NW REUNION_R50_NE REUNION_R50_SE REUNION_R50_SW REUNION_R50_NW REUNION_R64_NE REUNION_R64_SE REUNION_R64_SW REUNION_R64_NW BOM_LAT BOM_LON BOM_TYPE BOM_WIND BOM_PRES BOM_TNUM BOM_CI BOM_RMW BOM_R34_NE BOM_R34_SE BOM_R34_SW BOM_R34_NW BOM_R50_NE BOM_R50_SE BOM_R50_SW BOM_R50_NW BOM_R64_NE BOM_R64_SE BOM_R64_SW BOM_R64_NW BOM_ROCI BOM_POCI BOM_EYE BOM_POS_METHOD BOM_PRES_METHOD NADI_LAT NADI_LON NADI_CAT NADI_WIND NADI_PRES WELLINGTON_LAT WELLINGTON_LON WELLINGTON_WIND WELLINGTON_PRES DS824_LAT DS824_LON DS824_STAGE DS824_WIND DS824_PRES TD9636_LAT TD9636_LON TD9636_STAGE TD9636_WIND TD9636_PRES TD9635_LAT TD9635_LON TD9635_WIND TD9635_PRES TD9635_ROCI NEUMANN_LAT NEUMANN_LON NEUMANN_CLASS NEUMANN_WIND NEUMANN_PRES MLC_LAT MLC_LON MLC_CLASS MLC_WIND MLC_PRES USA_GUST BOM_GUST BOM_GUST_PER REUNION_GUST REUNION_GUST_PER USA_SEAHGT USA_SEARAD_NE USA_SEARAD_SE USA_SEARAD_SW USA_SEARAD_NW STORM_SPEED STORM_DIR
1978359S04172 1979 134 SP MM FAY 1978-12-24 12:00:00 TS -4.00000 172.000 main 1307 1307 O________O____ jtwc_sh SH041979 -4.00000 172.000 -1 -4.00000 172.000 TC 15 113
1978359S04172 1979 134 SP MM FAY 1978-12-24 15:00:00 TS -4.30017 172.692 main 1343 1338 P________P____ SH041979 -4.30017 172.692 -1 -4.30017 172.692 TC 14 115
1978359S04172 1979 134 SP MM FAY 1978-12-24 18:00:00 TS -4.60000 173.300 main 1348 1342 O________O____ jtwc_sh SH041979 -4.60000 173.300 -1 -4.60000 173.300 TC 12 119
1978359S04172 1979 134 SP MM FAY 1978-12-24 21:00:00 TS -4.89993 173.760 main 1348 1335 P________P____ SH041979 -4.89993 173.760 -1 -4.89993 173.760 TC 10 127
1978359S04172 1979 134 SP MM FAY 1978-12-25 00:00:00 TS -5.20000 174.100 main 1338 1323 O________OO_O_ jtwc_sh SH041979 -5.20000 174.100 -1 -5.20000 174.100 TC 25 -5.20000 174.100 1 -5.20000 174.100 TC 25 9 135
1978359S04172 1979 134 SP MM FAY 1978-12-25 03:00:00 TS -5.49391 174.365 main 1330 1294 P________PP_P_ SH041979 -5.50748 174.395 -1 -5.50748 174.395 TC 25 -5.49851 174.308 1 -5.43502 174.305 TC 25 7 142
1978359S04172 1979 134 SP MM FAY 1978-12-25 06:00:00 TS -5.77591 174.558 main 1290 1265 O________OP_O_ jtwc_sh SH041979 -5.80000 174.600 -1 -5.80000 174.600 TC 25 -5.78760 174.502 1 -5.70000 174.500 TC 25 7 149
1978359S04172 1979 134 SP MM FAY 1978-12-25 09:00:00 TS -6.04883 174.701 main 1265 1230 P________PP_P_ SH041979 -6.06498 174.730 -1 -6.06498 174.730 TC 25 -6.05787 174.671 1 -6.00750 174.673 TC 25 6 155
1978359S04172 1979 134 SP MM FAY 1978-12-25 12:00:00 TS -6.30000 174.800 main 1230 1205 O________OO_O_ jtwc_sh SH041979 -6.30000 174.800 -1 -6.30000 174.800 TC 25 -6.30000 174.800 1 -6.30000 174.800 TC 25 5 160
1978359S04172 1979 134 SP MM FAY 1978-12-25 15:00:00 TS -6.50983 174.866 main 1205 1184 P________PP_P_ SH041979 -6.50750 174.858 -1 -6.50750 174.858 TC 25 -6.50933 174.882 1 -6.51499 174.865 TC 25 4 166
1978359S04172 1979 134 SP MM FAY 1978-12-25 18:00:00 TS -6.69999 174.908 main 1184 1163 O________OP_O_ jtwc_sh SH041979 -6.70000 174.900 -1 -6.70000 174.900 TC 25 -6.69995 174.930 1 -6.70000 174.900 TC 25 4 167
1978359S04172 1979 134 SP MM FAY 1978-12-25 21:00:00 TS -6.89202 174.951 main 1159 1139 P________PP_P_ SH041979 -6.89250 174.950 -1 -6.89250 174.950 TC 25 -6.89059 174.963 1 -6.89250 174.943 TC 25 4 168
1978359S04172 1979 134 SP MM FAY 1978-12-26 00:00:00 TS -7.10000 175.000 main 1139 1114 O________OO_O_ jtwc_sh SH041979 -7.10000 175.000 -1 -7.10000 175.000 TC 25 -7.10000 175.000 1 -7.10000 175.000 TC 25 5 166
1978359S04172 1979 134 SP MM FAY 1978-12-26 03:00:00 TS -7.33251 175.062 main 1114 1083 P________PP_P_ SH041979 -7.33500 175.043 -1 -7.33500 175.043 TC 25 -7.32502 175.064 1 -7.33501 175.100 TC 25 5 165
1978359S04172 1979 134 SP MM FAY 1978-12-26 06:00:00 TS -7.59376 175.134 main 1083 1058 O________OP_O_ jtwc_sh SH041979 -7.60000 175.100 -1 -7.60000 175.100 TC 25 -7.57503 175.135 1 -7.60000 175.200 TC 25 6 164
1978359S04172 1979 134 SP MM FAY 1978-12-26 09:00:00 TS -7.86438 175.212 main 1047 1012 P________PP_P_ SH041979 -7.86251 175.193 -1 -7.86251 175.193 TC 25 -7.86252 175.214 1 -7.87000 175.250 TC 25 6 165
1978359S04172 1979 134 SP MM FAY 1978-12-26 12:00:00 TS -8.20000 175.300 main 1012 967 O________OO_O_ jtwc_sh SH041979 -8.20000 175.300 -1 -8.20000 175.300 TC 25 -8.20000 175.300 1 -8.20000 175.300 TC 25 8 167
1978359S04172 1979 134 SP MM FAY 1978-12-26 15:00:00 TS -8.66250 175.397 main 956 910 P________PP_P_ SH041979 -8.68500 175.400 -1 -8.68500 175.400 TC 25 -8.65249 175.397 1 -8.62751 175.393 TC 25 10 168
1978359S04172 1979 134 SP MM FAY 1978-12-26 18:00:00 TS -9.16125 175.500 main 900 854 O________OP_O_ jtwc_sh SH041979 -9.20000 175.500 -1 -9.20000 175.500 TC 25 -9.14500 175.500 1 -9.10000 175.500 TC 25 10 168
1978359S04172 1979 134 SP MM FAY 1978-12-26 21:00:00 TS -9.62875 175.606 main 854 809 P________PP_P_ SH041979 -9.65249 175.607 -1 -9.65249 175.607 TC 25 -9.61502 175.603 1 -9.59500 175.607 TC 27 9 167
1978359S04172 1979 134 SP MM FAY 1978-12-27 00:00:00 TS -10.0000 175.700 main 809 784 O________OO_O_ jtwc_sh SH041979 -10.0000 175.700 -1 -10.0000 175.700 TC 25 -10.0000 175.700 1 -10.0000 175.700 TC 30 6 165
1978359S04172 1979 134 SP MM FAY 1978-12-27 03:00:00 TS -10.2007 175.758 main 784 773 P________PP_P_ SH041979 -10.1950 175.750 -1 -10.1950 175.750 TC 25 -10.2103 175.782 1 -10.2025 175.750 TC 30 3 160
1978359S04172 1979 134 SP MM FAY 1978-12-27 06:00:00 TS -10.3081 175.814 main 773 759 O________OP_O_ jtwc_sh SH041979 -10.3000 175.800 -1 -10.3000 175.800 TC 25 -10.3324 175.858 1 -10.3000 175.800 TC 30 3 143
1978359S04172 1979 134 SP MM FAY 1978-12-27 09:00:00 TS -10.4015 175.907 main 759 748 P________PP_P_ SH041979 -10.4000 175.900 -1 -10.4000 175.900 TC 30 -10.4134 175.929 1 -10.3925 175.900 TC 32 2 142
1978359S04172 1979 134 SP MM FAY 1978-12-27 12:00:00 TS -10.4706 175.941 40 990 wellington main 748 738 O_______OOO_O_ jtwc_sh SH041979 -10.5000 176.000 -1 -10.0000 175.000 40 990 -10.5000 176.000 TC 35 -10.5000 176.000 2 -10.5000 176.000 TC 35 2 171
1978359S04172 1979 134 SP MM FAY 1978-12-27 15:00:00 TS -10.6189 175.943 main 738 713 P_______PPP_P_ SH041979 -10.6350 176.050 -1 -10.4297 175.109 40 990 -10.6350 176.050 TC 35 -10.6077 176.039 2 -10.6925 176.050 TC 35 3 0
1978359S04172 1979 134 SP MM FAY 1978-12-27 18:00:00 TS -10.8138 175.958 main 713 692 O_______POP_O_ jtwc_sh SH041979 -10.8000 176.100 -1 -10.8376 175.224 40 990 -10.8000 176.100 TC 35 -10.7373 176.083 2 -10.9000 176.100 TC 35 4 171
1978359S04172 1979 134 SP MM FAY 1978-12-27 21:00:00 TS -11.0080 176.003 main 692 668 P_______PPP_P_ SH041979 -10.9550 176.170 -1 -11.2017 175.352 40 990 -10.9550 176.170 TC 35 -10.9233 176.161 2 -11.0050 176.163 TC 35 5 158
1978359S04172 1979 134 SP MM FAY 1978-12-28 00:00:00 TS -11.2600 176.140 40 990 wellington main 657 618 O_______OOO_O_ jtwc_sh SH041979 -11.2000 176.300 -1 -11.5000 175.500 40 990 -11.2000 176.300 TC 35 -11.2000 176.300 2 -11.2000 176.300 TC 35 7 151
1978359S04172 1979 134 SP MM FAY 1978-12-28 03:00:00 TS -11.6381 176.362 main 614 554 P_______PPP_P_ SH041979 -11.5975 176.513 -1 -11.7248 175.675 40 990 -11.5975 176.513 TC 35 -11.6230 176.539 2 -11.6476 176.570 TC 35 10 149
1978359S04172 1979 134 SP MM FAY 1978-12-28 06:00:00 TS -12.0915 176.646 main 554 500 O_______POP_O_ jtwc_sh SH041979 -12.1000 176.800 -1 -11.9246 175.889 40 990 -12.1000 176.800 TC 35 -12.1328 176.839 2 -12.2000 176.900 TC 35 11 148
1978359S04172 1979 134 SP MM FAY 1978-12-28 09:00:00 TS -12.5767 176.967 main 486 432 P_______PPP_P_ SH041979 -12.6651 177.150 -1 -12.1621 176.159 40 990 -12.6651 177.150 TC 35 -12.6762 177.170 2 -12.7150 177.208 TC 35 12 147
1978359S04172 1979 134 SP MM FAY 1978-12-28 12:00:00 TS -13.0600 177.300 40 990 wellington main 422 378 O_______OOO_O_ jtwc_sh SH041979 -13.2000 177.500 -1 -12.5000 176.500 40 990 -13.2000 177.500 TC 35 -13.2000 177.500 2 -13.2000 177.500 TC 35 11 146
1978359S04172 1979 134 SP MM FAY 1978-12-28 15:00:00 TS -13.4684 177.592 main 367 314 P_______PPP_P_ SH041979 -13.5649 177.758 -1 -13.0299 176.947 43 987 -13.5649 177.758 TC 35 -13.5674 177.748 2 -13.6149 177.750 TC 35 10 145
1978359S04172 1979 134 SP MM FAY 1978-12-28 18:00:00 TS -13.8756 177.891 main 314 260 O_______POP_O_ jtwc_sh SH041979 -13.9000 178.000 -1 -13.6609 177.461 47 985 -13.9000 178.000 TC 35 -13.9169 177.993 2 -14.0000 178.000 TC 35 10 145
1978359S04172 1979 134 SP MM FAY 1978-12-28 21:00:00 TS -14.3143 178.210 main 260 193 P_______PPP_P_ SH041979 -14.2899 178.263 -1 -14.3363 177.994 51 982 -14.2899 178.263 TC 35 -14.3079 178.267 2 -14.3474 178.263 TC 35 12 145
1978359S04172 1979 134 SP MM FAY 1978-12-29 00:00:00 TS -14.8400 178.580 55 980 wellington main 193 114 O_______OOO_O_ jtwc_sh SH041979 -14.8000 178.600 -1 -15.0000 178.500 55 980 -14.8000 178.600 TC 35 -14.8000 178.600 2 -14.8000 178.600 TC 35 14 146
1978359S04172 1979 134 SP MM FAY 1978-12-29 03:00:00 TS -15.4869 179.025 main 104 11 P_______PPP_P_ SH041979 -15.4976 179.070 -1 -15.4893 178.866 55 980 -15.4976 179.070 TC 35 -15.4597 179.047 2 -15.4901 179.070 TC 35 17 147
1978359S04172 1979 134 SP MM FAY 1978-12-29 06:00:00 TS -16.2189 179.512 main 11 0 O_______POP_O_ jtwc_sh SH041979 -16.3000 179.600 -1 -15.9710 179.204 55 980 -16.3000 179.600 TC 35 -16.2235 179.554 2 -16.3000 179.600 TC 35 18 148
1978359S04172 1979 134 SP MM FAY 1978-12-29 09:00:00 TS -16.9690 179.997 main 24 24 P_______PPP_P_ SH041979 -17.0925 -179.885 -1 -16.5172 179.564 55 980 -17.0925 -179.885 TC 35 -17.0504 -179.915 2 -17.0924 -179.892 TC 35 18 149
1978359S04172 1979 134 SP MM FAY 1978-12-29 12:00:00 TS -17.7600 180.480 55 980 wellington main 128 128 O_______OOO_O_ jtwc_sh SH041979 -17.9000 -179.400 -1 -17.2000 180.000 55 980 -17.9000 180.600 TC 35 -17.9000 -179.400 2 -17.9000 -179.400 TC 35 18 150
1978359S04172 1979 134 SP MM FAY 1978-12-29 15:00:00 TS -18.5661 180.955 main 232 232 P_______PPP_P_ SH041979 -18.6923 -178.992 -1 -18.0922 -179.358 55 980 -18.6923 -178.992 TC 35 -18.6616 -178.951 2 -18.6924 -178.935 TC 35 19 151
1978359S04172 1979 134 SP MM FAY 1978-12-29 18:00:00 TS -19.4136 181.427 main 319 319 O_______POP_O_ jtwc_sh SH041979 -19.5000 -178.600 -1 -19.1234 -178.640 55 980 -19.5000 181.400 TC 35 -19.4447 -178.524 2 -19.5000 -178.500 TC 35 20 152
1978359S04172 1979 134 SP MM FAY 1978-12-29 21:00:00 TS -20.2906 181.913 main 416 416 P_______PPP_P_ SH041979 -20.3125 -178.150 -1 -20.2426 -177.927 55 980 -20.3125 -178.150 TC 35 -20.2805 -178.110 2 -20.3048 -178.099 TC 35 20 154
1978359S04172 1979 134 SP MM FAY 1978-12-30 00:00:00 TS -21.2400 182.380 55 980 wellington main 519 519 O_______OOO_O_ jtwc_sh SH041979 -21.2000 -177.700 -1 -21.4000 -177.300 55 980 -21.2000 182.300 TC 35 -21.2000 -177.700 2 -21.2000 -177.700 TC 35 22 157
1978359S04172 1979 134 SP MM FAY 1978-12-30 03:00:00 TS -22.2721 182.812 main 635 635 P_______PPP_P_ SH041979 -22.1974 -177.299 -1 -22.5037 -176.847 55 980 -22.1974 -177.299 TC 35 -22.2069 -177.247 2 -22.2551 -177.250 TC 35 23 160
1978359S04172 1979 134 SP MM FAY 1978-12-30 06:00:00 TS -23.3880 183.221 main 754 754 O_______POP_O_ jtwc_sh SH041979 -23.3000 -176.900 -1 -23.6387 -176.496 55 980 -23.3000 183.100 TC 35 -23.3012 -176.798 2 -23.4000 -176.800 TC 35 24 162
1978359S04172 1979 134 SP MM FAY 1978-12-30 09:00:00 TS -24.5409 183.631 main 877 877 P_______PPP_P_ SH041979 -24.4552 -176.435 -1 -24.8043 -176.222 55 980 -24.4552 -176.435 TC 35 -24.4697 -176.375 2 -24.5200 -176.377 TC 35 25 163
1978359S04172 1979 134 SP MM FAY 1978-12-30 12:00:00 TS -25.7600 184.000 55 980 wellington main 1019 1019 O_______OOO_O_ jtwc_sh SH041979 -25.7000 -176.000 -1 -26.0000 -176.000 55 980 -25.7000 184.000 TC 35 -25.7000 -176.000 2 -25.7000 -176.000 TC 35 26 166
1978359S04172 1979 134 SP MM FAY 1978-12-30 15:00:00 TS -27.0519 184.308 main 1158 1158 P_______PPP_P_ SH041979 -27.0349 -175.662 -1 -27.2206 -175.801 51 982 -27.0349 -175.662 TC 30 -26.9994 -175.667 2 -26.9700 -175.670 TC 32 27 169
1978359S04172 1979 134 SP MM FAY 1978-12-30 18:00:00 TS -28.3837 184.554 main 1176 1063 O_______POP_O_ jtwc_sh SH041979 -28.4000 -175.400 -1 -28.4692 -175.642 47 985 -28.4000 184.600 TC 25 -28.3495 -175.388 2 -28.3000 -175.400 TC 30 27 171
1978359S04172 1979 134 SP MM FAY 1978-12-30 21:00:00 TS -29.7146 184.768 main 1059 952 P_______PPP_P_ SH041979 -29.7299 -175.170 -1 -29.7333 -175.488 43 987 -29.7299 -175.170 TC 25 -29.6999 -175.165 2 -29.6799 -175.170 TC 30 26 173
1978359S04172 1979 134 SP MM FAY 1978-12-31 00:00:00 TS -31.0000 184.940 40 990 wellington main 943 859 O_______OOO_O_ jtwc_sh SH041979 -31.0000 -175.000 -1 -31.0000 -175.300 40 990 -31.0000 185.000 TC 25 -31.0000 -175.000 1 -31.0000 -175.000 TC 30 25 174
1978359S04172 1979 134 SP MM FAY 1978-12-31 03:00:00 TS -32.1922 185.090 main 851 771 P_______PPP_P_ SH041979 -32.1799 -174.870 -1 -32.2592 -175.048 40 990 -32.1799 -174.870 TC 25 -32.2121 -174.894 1 -32.1299 -174.870 TC 30 24 175
1978359S04172 1979 134 SP MM FAY 1978-12-31 06:00:00 TS -33.3320 185.205 main 771 704 O_______POP_O_ jtwc_sh SH041979 -33.3000 -174.800 -1 -33.5109 -174.738 40 990 -33.3000 185.200 TC 25 -33.3493 -174.836 1 -33.2000 -174.800 TC 30 23 176
1978359S04172 1979 134 SP MM FAY 1978-12-31 09:00:00 TS -34.4654 185.291 main 698 649 P_______PPP_P_ SH041979 -34.4025 -174.785 -1 -34.7574 -174.383 40 990 -34.4025 -174.785 TC 25 -34.4371 -174.810 1 -34.3276 -174.785 TC 30 23 177
1978359S04172 1979 134 SP MM FAY 1978-12-31 12:00:00 TS -35.6000 185.360 40 990 wellington main 648 O_______OOO_O_ jtwc_sh SH041979 -35.5000 -174.800 -1 -36.0000 -174.000 40 990 -35.5000 185.200 TC 25 -35.5000 -174.800 6 -35.5000 -174.800 TC 30 23 177

デジタル台風データ・検索

IBTrACS Databaseについて

本データベースは、米国NOAAが公開する1842年以降の世界の熱帯低気圧のベストトラックデータアーカイブInternational Best Track Archive for Climate Stewardship (IBTrACS)を、ウェブで閲覧しやすい形式に変換したものです。

最終更新日:2021-11-26